createdAt,value
2022-11-25T00:02:54.225Z,101198.66
2022-11-25T00:08:00.299Z,101196.00
2022-11-25T00:13:01.992Z,101195.56
2022-11-25T00:18:04.623Z,101200.72
2022-11-25T00:23:11.116Z,101193.06
2022-11-25T00:28:12.786Z,101191.66
2022-11-25T00:33:14.689Z,101193.59
2022-11-25T00:38:18.925Z,101188.41
2022-11-25T00:43:39.020Z,101186.47
2022-11-25T00:48:42.934Z,101187.47
2022-11-25T00:53:47.638Z,101183.97
2022-11-25T00:58:59.078Z,101183.28
2022-11-25T01:04:03.843Z,101178.94
2022-11-25T01:09:12.235Z,101186.06
2022-11-25T01:14:16.200Z,101174.34
2022-11-25T01:19:19.036Z,101173.38
2022-11-25T01:24:20.726Z,101164.72
2022-11-25T01:29:23.318Z,101169.19
2022-11-25T01:34:34.657Z,101163.34
2022-11-25T01:39:39.782Z,101159.00
2022-11-25T01:44:44.008Z,101154.69
2022-11-25T01:49:55.101Z,101166.66
2022-11-25T01:54:59.703Z,101158.84
2022-11-25T02:00:04.084Z,101156.91
2022-11-25T02:05:13.842Z,101157.63
2022-11-25T02:10:29.985Z,101149.22
2022-11-25T02:15:39.376Z,101143.63
2022-11-25T02:20:43.457Z,101146.28
2022-11-25T02:25:48.229Z,101133.81
2022-11-25T02:30:55.043Z,101137.75
2022-11-25T02:35:58.958Z,101144.97
2022-11-25T02:41:04.855Z,101130.44
2022-11-25T02:46:16.179Z,101124.56
2022-11-25T02:51:24.455Z,101128.22
2022-11-25T02:56:30.065Z,101135.06
2022-11-25T03:01:33.274Z,101136.47
2022-11-25T03:06:35.058Z,101133.53
2022-11-25T03:11:55.318Z,101135.63
2022-11-25T03:16:57.234Z,101139.53
2022-11-25T03:22:03.384Z,101143.41
2022-11-25T03:27:07.383Z,101139.91
2022-11-25T03:32:11.504Z,101134.81
2022-11-25T03:37:14.729Z,101124.19
2022-11-25T03:42:19.379Z,101125.75
2022-11-25T03:47:24.470Z,101124.06
2022-11-25T03:52:28.880Z,101112.75
2022-11-25T03:57:31.895Z,101119.31
2022-11-25T04:02:36.305Z,101124.63
2022-11-25T04:07:44.888Z,101131.47
2022-11-25T04:12:49.406Z,101129.22
2022-11-25T04:18:00.056Z,101138.72
2022-11-25T04:23:06.194Z,101143.72
2022-11-25T04:28:11.020Z,101142.78
2022-11-25T04:33:12.914Z,101137.22
2022-11-25T04:38:14.921Z,101140.19
2022-11-25T04:43:17.392Z,101143.28
2022-11-25T04:48:29.918Z,101145.94
2022-11-25T04:53:34.553Z,101144.41
2022-11-25T04:58:54.942Z,101156.00
2022-11-25T05:03:59.036Z,101157.31
2022-11-25T05:09:04.691Z,101158.72
2022-11-25T05:14:09.523Z,101158.19
2022-11-25T05:19:19.023Z,101154.97
2022-11-25T05:24:24.935Z,101161.13
2022-11-25T05:29:32.493Z,101157.50
2022-11-25T05:34:37.256Z,101161.00
2022-11-25T05:39:39.463Z,101154.84
2022-11-25T05:45:01.935Z,101153.47
2022-11-25T05:50:05.533Z,101151.94
2022-11-25T05:55:08.202Z,101158.91
2022-11-25T06:00:10.558Z,101149.97
2022-11-25T06:05:20.777Z,101162.38
2022-11-25T06:10:22.581Z,101157.94
2022-11-25T06:15:25.435Z,101151.75
2022-11-25T06:20:31.459Z,101163.94
2022-11-25T06:25:36.488Z,101158.78
2022-11-25T06:30:38.458Z,101161.44
2022-11-25T06:36:17.181Z,101155.69
2022-11-25T06:41:23.548Z,101162.69
2022-11-25T06:46:25.721Z,101170.66
2022-11-25T06:51:29.798Z,101180.41
2022-11-25T06:56:33.809Z,101184.75
2022-11-25T07:01:38.387Z,101200.25
2022-11-25T07:06:40.178Z,101198.44
2022-11-25T07:11:44.340Z,101200.13
2022-11-25T07:16:48.304Z,101207.94
2022-11-25T07:21:49.998Z,101210.59
2022-11-25T07:26:53.882Z,101220.78
2022-11-25T07:32:03.328Z,101228.03
2022-11-25T07:37:09.643Z,101241.75
2022-11-25T07:42:13.941Z,101255.94
2022-11-25T07:47:18.674Z,101252.19
2022-11-25T07:52:22.661Z,101257.94
2022-11-25T07:57:26.420Z,101264.41
2022-11-25T08:02:31.501Z,101265.22
2022-11-25T08:07:36.469Z,101271.38
2022-11-25T08:12:41.190Z,101273.72
2022-11-25T08:17:42.912Z,101278.47
2022-11-25T08:22:44.654Z,101279.72
2022-11-25T08:27:48.475Z,101284.47
2022-11-25T08:33:01.245Z,101296.31
2022-11-25T08:38:08.937Z,101294.22
2022-11-25T08:43:16.222Z,101301.06
2022-11-25T08:48:21.943Z,101308.47
2022-11-25T08:53:24.764Z,101299.03
2022-11-25T08:58:31.379Z,101309.28
2022-11-25T09:03:43.216Z,101307.81
2022-11-25T09:08:48.898Z,101315.38
2022-11-25T09:13:52.415Z,101320.94
2022-11-25T09:19:01.105Z,101319.38
2022-11-25T09:24:05.803Z,101324.63
2022-11-25T09:29:10.755Z,101325.56
2022-11-25T09:34:12.615Z,101332.50
2022-11-25T09:39:16.234Z,101342.56
2022-11-25T09:44:50.269Z,101355.56
2022-11-25T09:50:04.582Z,101365.31
2022-11-25T09:55:06.633Z,101366.53
2022-11-25T10:00:14.179Z,101364.81
2022-11-25T10:05:20.601Z,101369.22
2022-11-25T10:10:28.768Z,101379.13
2022-11-25T10:15:35.893Z,101389.56
2022-11-25T10:20:39.374Z,101376.31
2022-11-25T10:25:51.831Z,101380.03
2022-11-25T10:31:18.634Z,101383.16
2022-11-25T10:36:33.745Z,101384.72
2022-11-25T10:41:47.943Z,101387.22
2022-11-25T10:47:21.231Z,101387.41
2022-11-25T10:52:29.605Z,101398.63
2022-11-25T10:57:35.700Z,101402.13
2022-11-25T11:02:39.819Z,101404.81
2022-11-25T11:07:46.783Z,101411.50
2022-11-25T11:13:03.084Z,101412.03
2022-11-25T11:18:24.855Z,101411.66
2022-11-25T11:23:31.236Z,101422.50
2022-11-25T11:28:37.211Z,101433.47
2022-11-25T11:33:57.633Z,101432.50
2022-11-25T11:39:21.615Z,101425.63
2022-11-25T11:45:02.881Z,101435.28
2022-11-25T11:50:26.628Z,101444.22
2022-11-25T11:55:43.317Z,101441.38
2022-11-25T12:01:29.436Z,101447.50
2022-11-25T12:06:33.824Z,101458.88
2022-11-25T12:11:40.641Z,101460.22
2022-11-25T12:16:51.656Z,101461.38
2022-11-25T12:22:02.649Z,101468.91
2022-11-25T12:27:14.452Z,101471.75
2022-11-25T12:32:28.104Z,101472.34
2022-11-25T12:37:58.811Z,101473.53
2022-11-25T12:43:37.410Z,101477.06
2022-11-25T12:48:41.999Z,101484.16
2022-11-25T12:54:00.250Z,101497.94
2022-11-25T12:59:31.645Z,101509.88
2022-11-25T13:10:47.729Z,101505.84
2022-11-25T13:10:55.759Z,101507.38
2022-11-25T13:15:52.786Z,101511.88
2022-11-25T13:20:56.038Z,101522.22
2022-11-25T13:26:28.456Z,101526.66
2022-11-25T13:32:00.787Z,101523.31
2022-11-25T13:37:41.510Z,101523.28
2022-11-25T13:42:48.288Z,101540.66
2022-11-25T13:47:51.480Z,101549.72
2022-11-25T13:53:31.948Z,101547.75
2022-11-25T13:58:48.187Z,101571.19
2022-11-25T14:03:55.747Z,101561.25
2022-11-25T14:09:20.253Z,101566.88
2022-11-25T14:14:59.804Z,101565.25
2022-11-25T14:20:34.591Z,101576.16
2022-11-25T14:26:11.740Z,101581.03
2022-11-25T14:31:36.182Z,101580.19
2022-11-25T14:36:55.239Z,101583.50
2022-11-25T14:42:04.171Z,101586.59
2022-11-25T14:47:11.430Z,101598.22
2022-11-25T14:52:27.540Z,101611.16
2022-11-25T14:57:34.788Z,101616.88
2022-11-25T15:02:41.051Z,101637.50
2022-11-25T15:07:56.954Z,101638.50
2022-11-25T15:13:13.800Z,101651.56
2022-11-25T15:18:26.220Z,101660.59
2022-11-25T15:23:31.973Z,101663.66
2022-11-25T15:28:40.326Z,101687.34
2022-11-25T15:33:42.923Z,101691.31
2022-11-25T15:38:48.383Z,101699.38
2022-11-25T15:43:56.570Z,101707.38
2022-11-25T15:49:01.484Z,101718.56
2022-11-25T15:54:17.856Z,101719.34
2022-11-25T15:59:39.234Z,101725.13
2022-11-25T16:04:40.963Z,101736.84
2022-11-25T16:09:51.082Z,101749.63
2022-11-25T16:14:52.877Z,101761.81
2022-11-25T16:19:56.992Z,101764.34
2022-11-25T16:25:02.931Z,101772.03
2022-11-25T16:30:05.506Z,101777.09
2022-11-25T16:35:15.673Z,101780.28
2022-11-25T16:40:20.586Z,101782.69
2022-11-25T16:45:24.734Z,101783.38
2022-11-25T16:50:28.880Z,101801.06
2022-11-25T16:55:32.954Z,101810.44
2022-11-25T17:00:34.955Z,101813.13
2022-11-25T17:05:36.788Z,101816.94
2022-11-25T17:10:41.633Z,101815.09
2022-11-25T17:15:46.087Z,101819.34
2022-11-25T17:20:50.474Z,101835.91
2022-11-25T17:25:55.687Z,101843.22
2022-11-25T17:31:03.264Z,101843.41
2022-11-25T17:36:05.400Z,101860.25
2022-11-25T17:41:13.406Z,101863.06
2022-11-25T17:46:19.930Z,101872.19
2022-11-25T17:51:21.777Z,101886.19
2022-11-25T17:56:28.578Z,101896.28
2022-11-25T18:01:31.102Z,101903.69
2022-11-25T18:06:32.944Z,101914.34
2022-11-25T18:11:34.676Z,101913.91
2022-11-25T18:16:42.601Z,101918.66
2022-11-25T18:21:46.911Z,101927.03
2022-11-25T18:26:50.007Z,101938.09
2022-11-25T18:31:56.522Z,101943.63
2022-11-25T18:37:01.010Z,101960.94
2022-11-25T18:42:07.940Z,101969.88
2022-11-25T18:47:12.950Z,101976.56
2022-11-25T18:52:20.615Z,101986.91
2022-11-25T18:57:25.482Z,101985.59
2022-11-25T19:02:28.651Z,102002.38
2022-11-25T19:07:31.633Z,102012.63
2022-11-25T19:12:36.856Z,102028.09
2022-11-25T19:17:38.886Z,102036.50
2022-11-25T19:22:40.610Z,102045.47
2022-11-25T19:28:02.566Z,102056.97
2022-11-25T19:33:04.369Z,102060.84
2022-11-25T19:38:21.483Z,102063.75
2022-11-25T19:43:27.145Z,102066.03
2022-11-25T19:48:36.337Z,102089.00
2022-11-25T19:53:40.549Z,102094.16
2022-11-25T19:58:42.338Z,102095.16
2022-11-25T20:03:50.092Z,102113.03
2022-11-25T20:08:57.339Z,102116.66
2022-11-25T20:14:01.527Z,102126.91
2022-11-25T20:19:07.036Z,102130.16
2022-11-25T20:24:15.737Z,102149.22
2022-11-25T20:29:25.872Z,102158.63
2022-11-25T20:34:40.422Z,102159.38
2022-11-25T20:39:44.959Z,102170.94
2022-11-25T20:44:47.065Z,102163.44
2022-11-25T20:49:48.850Z,102160.56
2022-11-25T20:54:55.202Z,102161.59
2022-11-25T21:00:01.861Z,102176.75
2022-11-25T21:05:11.601Z,102185.84
2022-11-25T21:10:25.061Z,102193.81
2022-11-25T21:15:29.524Z,102200.09
2022-11-25T21:20:32.037Z,102202.06
2022-11-25T21:25:35.255Z,102211.63
2022-11-25T21:30:39.847Z,102216.53
2022-11-25T21:35:44.608Z,102223.75
2022-11-25T21:40:49.361Z,102224.19
2022-11-25T21:46:01.504Z,102228.34
2022-11-25T21:51:11.585Z,102228.56
2022-11-25T21:56:30.293Z,102232.53
2022-11-25T22:01:40.263Z,102232.31
2022-11-25T22:06:46.985Z,102248.53
2022-11-25T22:11:53.101Z,102245.78
2022-11-25T22:16:57.147Z,102262.44
2022-11-25T22:22:01.597Z,102272.47
2022-11-25T22:27:07.293Z,102274.09
2022-11-25T22:32:16.070Z,102268.16
2022-11-25T22:37:22.353Z,102278.31
2022-11-25T22:42:29.615Z,102278.84
2022-11-25T22:47:48.686Z,102290.50
2022-11-25T22:52:51.041Z,102304.28
2022-11-25T22:57:59.116Z,102313.47
2022-11-25T23:03:02.404Z,102318.75
2022-11-25T23:08:13.744Z,102332.09
2022-11-25T23:13:17.240Z,102330.19
2022-11-25T23:18:34.082Z,102349.56
2022-11-25T23:23:42.004Z,102342.94
2022-11-25T23:28:48.342Z,102352.25
2022-11-25T23:33:53.351Z,102341.97
2022-11-25T23:39:00.213Z,102352.78
2022-11-25T23:44:15.304Z,102355.47
2022-11-25T23:49:44.478Z,102372.88
2022-11-25T23:54:52.292Z,102371.81
2022-11-25T23:59:56.145Z,102373.25
